sensor_id;sensor_type;location;lat;lon;timestamp;pressure;altitude;pressure_sealevel;temperature;humidity
706;BME280;21234;48.690;9.016;2023-04-03T00:00:19;96771.53;;;1.89;88.06
706;BME280;21234;48.690;9.016;2023-04-03T00:02:45;96772.00;;;1.92;88.79
706;BME280;21234;48.690;9.016;2023-04-03T00:05:12;96767.31;;;1.94;88.17
706;BME280;21234;48.690;9.016;2023-04-03T00:07:39;96775.13;;;1.96;89.18
706;BME280;21234;48.690;9.016;2023-04-03T00:10:08;96778.84;;;1.95;89.21
706;BME280;21234;48.690;9.016;2023-04-03T00:12:35;96765.34;;;1.88;88.67
706;BME280;21234;48.690;9.016;2023-04-03T00:15:02;96767.31;;;1.94;88.52
706;BME280;21234;48.690;9.016;2023-04-03T00:17:29;96761.94;;;1.94;87.97
706;BME280;21234;48.690;9.016;2023-04-03T00:19:56;96772.00;;;1.92;87.62
706;BME280;21234;48.690;9.016;2023-04-03T00:22:22;96770.72;;;1.88;87.13
706;BME280;21234;48.690;9.016;2023-04-03T00:24:49;96764.16;;;1.91;88.30
706;BME280;21234;48.690;9.016;2023-04-03T00:27:17;96767.19;;;1.88;88.08
706;BME280;21234;48.690;9.016;2023-04-03T00:29:44;96765.34;;;1.88;87.41
706;BME280;21234;48.690;9.016;2023-04-03T00:32:10;96770.91;;;1.87;87.84
706;BME280;21234;48.690;9.016;2023-04-03T00:34:37;96765.00;;;1.91;87.71
706;BME280;21234;48.690;9.016;2023-04-03T00:37:04;96777.44;;;1.84;88.71
706;BME280;21234;48.690;9.016;2023-04-03T00:39:30;96765.91;;;1.84;87.68
706;BME280;21234;48.690;9.016;2023-04-03T00:41:58;96767.63;;;1.77;88.11
706;BME280;21234;48.690;9.016;2023-04-03T00:47:28;96773.47;;;1.80;88.06
706;BME280;21234;48.690;9.016;2023-04-03T00:49:56;96770.31;;;1.77;87.29
706;BME280;21234;48.690;9.016;2023-04-03T00:52:28;96768.84;;;1.74;87.67
706;BME280;21234;48.690;9.016;2023-04-03T00:54:58;96763.94;;;1.78;88.09
706;BME280;21234;48.690;9.016;2023-04-03T00:57:27;96763.75;;;1.79;86.96
706;BME280;21234;48.690;9.016;2023-04-03T00:59:56;96766.25;;;1.81;87.39
706;BME280;21234;48.690;9.016;2023-04-03T01:02:24;96770.78;;;1.80;88.33
706;BME280;21234;48.690;9.016;2023-04-03T01:04:52;96769.31;;;1.78;87.50
706;BME280;21234;48.690;9.016;2023-04-03T01:07:22;96765.44;;;1.80;87.21
706;BME280;21234;48.690;9.016;2023-04-03T01:09:52;96765.13;;;1.75;88.00
706;BME280;21234;48.690;9.016;2023-04-03T01:12:21;96768.47;;;1.77;88.19
706;BME280;21234;48.690;9.016;2023-04-03T01:14:50;96764.59;;;1.80;87.11
706;BME280;21234;48.690;9.016;2023-04-03T01:17:28;96775.69;;;1.77;86.76
706;BME280;21234;48.690;9.016;2023-04-03T01:22:52;96783.72;;;1.77;86.05
706;BME280;21234;48.690;9.016;2023-04-03T01:25:23;96779.28;;;1.69;85.83
706;BME280;21234;48.690;9.016;2023-04-03T01:27:49;96782.59;;;1.71;87.13
706;BME280;21234;48.690;9.016;2023-04-03T01:30:18;96779.75;;;1.73;86.24
706;BME280;21234;48.690;9.016;2023-04-03T01:32:46;96774.63;;;1.63;84.98
706;BME280;21234;48.690;9.016;2023-04-03T01:35:13;96774.72;;;1.55;85.78
706;BME280;21234;48.690;9.016;2023-04-03T01:37:40;96775.47;;;1.63;86.54
706;BME280;21234;48.690;9.016;2023-04-03T01:40:07;96782.66;;;1.63;86.01
706;BME280;21234;48.690;9.016;2023-04-03T01:42:34;96782.13;;;1.67;86.72
706;BME280;21234;48.690;9.016;2023-04-03T01:45:01;96785.56;;;1.76;86.97
706;BME280;21234;48.690;9.016;2023-04-03T01:47:28;96784.38;;;1.79;86.24
706;BME280;21234;48.690;9.016;2023-04-03T01:49:56;96779.84;;;1.79;86.61
706;BME280;21234;48.690;9.016;2023-04-03T01:52:22;96781.50;;;1.80;86.21
706;BME280;21234;48.690;9.016;2023-04-03T01:54:49;96779.00;;;1.79;86.24
706;BME280;21234;48.690;9.016;2023-04-03T01:57:16;96776.94;;;1.66;85.10
706;BME280;21234;48.690;9.016;2023-04-03T01:59:43;96782.25;;;1.74;86.31
706;BME280;21234;48.690;9.016;2023-04-03T02:02:10;96787.59;;;1.74;85.81
706;BME280;21234;48.690;9.016;2023-04-03T02:04:37;96777.34;;;1.78;86.44
706;BME280;21234;48.690;9.016;2023-04-03T02:07:06;96780.03;;;1.78;86.31
706;BME280;21234;48.690;9.016;2023-04-03T02:09:32;96780.22;;;1.76;87.26
706;BME280;21234;48.690;9.016;2023-04-03T02:11:59;96778.06;;;1.72;87.13
706;BME280;21234;48.690;9.016;2023-04-03T02:14:26;96776.59;;;1.69;87.57
706;BME280;21234;48.690;9.016;2023-04-03T02:16:52;96785.16;;;1.64;87.60
706;BME280;21234;48.690;9.016;2023-04-03T02:19:19;96779.44;;;1.67;86.74
706;BME280;21234;48.690;9.016;2023-04-03T02:21:46;96783.13;;;1.66;87.82
706;BME280;21234;48.690;9.016;2023-04-03T02:24:14;96786.47;;;1.68;87.57
706;BME280;21234;48.690;9.016;2023-04-03T02:26:41;96794.22;;;1.63;87.92
706;BME280;21234;48.690;9.016;2023-04-03T02:29:07;96794.03;;;1.50;88.13
706;BME280;21234;48.690;9.016;2023-04-03T02:31:34;96789.69;;;1.64;88.19
706;BME280;21234;48.690;9.016;2023-04-03T02:34:01;96798.75;;;1.63;88.66
706;BME280;21234;48.690;9.016;2023-04-03T02:36:27;96791.38;;;1.65;88.66
706;BME280;21234;48.690;9.016;2023-04-03T02:38:54;96794.50;;;1.68;88.91
706;BME280;21234;48.690;9.016;2023-04-03T02:41:22;96784.91;;;1.74;87.77
706;BME280;21234;48.690;9.016;2023-04-03T02:43:50;96793.69;;;1.68;88.61
706;BME280;21234;48.690;9.016;2023-04-03T02:46:17;96785.09;;;1.73;88.57
706;BME280;21234;48.690;9.016;2023-04-03T02:48:44;96790.00;;;1.69;87.74
706;BME280;21234;48.690;9.016;2023-04-03T02:51:10;96794.50;;;1.68;87.69
706;BME280;21234;48.690;9.016;2023-04-03T02:53:37;96797.38;;;1.67;87.92
706;BME280;21234;48.690;9.016;2023-04-03T02:56:04;96789.91;;;1.62;87.50
706;BME280;21234;48.690;9.016;2023-04-03T02:58:32;96790.72;;;1.63;87.60
706;BME280;21234;48.690;9.016;2023-04-03T03:00:59;96796.06;;;1.63;88.11
706;BME280;21234;48.690;9.016;2023-04-03T03:03:25;96790.72;;;1.63;88.26
706;BME280;21234;48.690;9.016;2023-04-03T03:06:01;96797.28;;;1.60;87.65
706;BME280;21234;48.690;9.016;2023-04-03T03:08:28;96792.38;;;1.64;87.59
706;BME280;21234;48.690;9.016;2023-04-03T03:10:54;96785.34;;;1.63;87.61
706;BME280;21234;48.690;9.016;2023-04-03T03:13:21;96787.31;;;1.69;87.38
706;BME280;21234;48.690;9.016;2023-04-03T03:15:49;96779.28;;;1.69;86.80
706;BME280;21234;48.690;9.016;2023-04-03T03:18:16;96783.72;;;1.62;86.29
706;BME280;21234;48.690;9.016;2023-04-03T03:20:43;96785.63;;;1.68;87.08
706;BME280;21234;48.690;9.016;2023-04-03T03:23:10;96785.16;;;1.64;86.53
706;BME280;21234;48.690;9.016;2023-04-03T03:25:37;96779.44;;;1.67;85.41
706;BME280;21234;48.690;9.016;2023-04-03T03:28:04;96779.28;;;1.69;85.66
706;BME280;21234;48.690;9.016;2023-04-03T03:30:31;96772.53;;;1.73;85.84
706;BME280;21234;48.690;9.016;2023-04-03T03:32:59;96780.94;;;1.70;85.67
706;BME280;21234;48.690;9.016;2023-04-03T03:35:26;96777.41;;;1.69;85.43
706;BME280;21234;48.690;9.016;2023-04-03T03:37:53;96775.75;;;1.68;85.86
706;BME280;21234;48.690;9.016;2023-04-03T03:40:20;96777.41;;;1.69;86.23
706;BME280;21234;48.690;9.016;2023-04-03T03:42:46;96778.06;;;1.72;85.57
706;BME280;21234;48.690;9.016;2023-04-03T03:45:13;96778.25;;;1.70;84.90
706;BME280;21234;48.690;9.016;2023-04-03T03:47:40;96777.53;;;1.76;85.96
706;BME280;21234;48.690;9.016;2023-04-03T03:50:09;96784.38;;;1.79;85.68
706;BME280;21234;48.690;9.016;2023-04-03T03:52:36;96787.25;;;1.77;85.14
706;BME280;21234;48.690;9.016;2023-04-03T03:55:04;96789.00;;;1.85;84.20
706;BME280;21234;48.690;9.016;2023-04-03T03:57:31;96783.19;;;1.81;83.70
706;BME280;21234;48.690;9.016;2023-04-03T03:59:57;96776.63;;;1.84;83.95
706;BME280;21234;48.690;9.016;2023-04-03T04:02:24;96781.97;;;1.84;83.94
706;BME280;21234;48.690;9.016;2023-04-03T04:04:51;96781.88;;;1.77;83.32
706;BME280;21234;48.690;9.016;2023-04-03T04:07:20;96775.50;;;1.78;83.80
706;BME280;21234;48.690;9.016;2023-04-03T04:09:46;96784.91;;;1.74;82.42
706;BME280;21234;48.690;9.016;2023-04-03T04:12:13;96784.19;;;1.80;82.05
706;BME280;21234;48.690;9.016;2023-04-03T04:14:41;96786.22;;;1.78;81.52
706;BME280;21234;48.690;9.016;2023-04-03T04:17:07;96783.00;;;1.83;81.15
706;BME280;21234;48.690;9.016;2023-04-03T04:19:34;96792.59;;;1.77;81.39
706;BME280;21234;48.690;9.016;2023-04-03T04:22:01;96786.22;;;1.78;81.11
706;BME280;21234;48.690;9.016;2023-04-03T04:24:29;96793.78;;;1.75;80.01
706;BME280;21234;48.690;9.016;2023-04-03T04:26:56;96797.00;;;1.70;81.39
706;BME280;21234;48.690;9.016;2023-04-03T04:29:23;96785.63;;;1.68;81.22
706;BME280;21234;48.690;9.016;2023-04-03T04:31:49;96789.34;;;1.67;82.09
706;BME280;21234;48.690;9.016;2023-04-03T04:34:16;96787.41;;;1.76;81.17
706;BME280;21234;48.690;9.016;2023-04-03T04:36:43;96788.13;;;1.69;79.15
706;BME280;21234;48.690;9.016;2023-04-03T04:39:09;96792.97;;;1.74;80.13
706;BME280;21234;48.690;9.016;2023-04-03T04:41:37;96781.88;;;1.77;80.76
706;BME280;21234;48.690;9.016;2023-04-03T04:44:04;96783.91;;;1.75;80.11
706;BME280;21234;48.690;9.016;2023-04-03T04:46:31;96783.25;;;1.73;80.03
706;BME280;21234;48.690;9.016;2023-04-03T04:48:58;96780.00;;;1.63;79.28
706;BME280;21234;48.690;9.016;2023-04-03T04:51:25;96791.38;;;1.65;79.93
706;BME280;21234;48.690;9.016;2023-04-03T04:53:51;96783.25;;;1.58;78.88
706;BME280;21234;48.690;9.016;2023-04-03T04:56:18;96789.69;;;1.64;78.38
706;BME280;21234;48.690;9.016;2023-04-03T04:58:47;96789.06;;;1.62;77.69
706;BME280;21234;48.690;9.016;2023-04-03T05:01:14;96796.91;;;1.63;78.79
706;BME280;21234;48.690;9.016;2023-04-03T05:03:41;96801.25;;;1.64;78.68
706;BME280;21234;48.690;9.016;2023-04-03T05:06:08;96805.06;;;1.70;77.33
706;BME280;21234;48.690;9.016;2023-04-03T05:08:35;96802.34;;;1.55;75.13
706;BME280;21234;48.690;9.016;2023-04-03T05:11:01;96805.78;;;1.64;76.48
706;BME280;21234;48.690;9.016;2023-04-03T05:13:28;96807.75;;;1.70;76.95
706;BME280;21234;48.690;9.016;2023-04-03T05:15:56;96805.00;;;1.78;77.48
706;BME280;21234;48.690;9.016;2023-04-03T05:18:23;96805.28;;;1.83;74.93
706;BME280;21234;48.690;9.016;2023-04-03T05:20:50;96812.56;;;1.75;72.51
706;BME280;21234;48.690;9.016;2023-04-03T05:23:17;96812.75;;;1.73;72.16
706;BME280;21234;48.690;9.016;2023-04-03T05:25:44;96809.03;;;1.74;73.53
706;BME280;21234;48.690;9.016;2023-04-03T05:28:12;96809.69;;;1.76;71.95
706;BME280;21234;48.690;9.016;2023-04-03T05:30:39;96818.88;;;1.82;72.63
706;BME280;21234;48.690;9.016;2023-04-03T05:33:07;96807.78;;;1.85;71.28
706;BME280;21234;48.690;9.016;2023-04-03T05:35:35;96814.69;;;1.79;68.12
706;BME280;21234;48.690;9.016;2023-04-03T05:38:04;96813.38;;;1.75;67.96
706;BME280;21234;48.690;9.016;2023-04-03T05:40:31;96816.53;;;1.79;69.00
706;BME280;21234;48.690;9.016;2023-04-03T05:42:58;96822.91;;;1.78;67.79
706;BME280;21234;48.690;9.016;2023-04-03T05:45:24;96810.09;;;1.88;70.22
706;BME280;21234;48.690;9.016;2023-04-03T05:47:51;96819.53;;;1.98;69.46
706;BME280;21234;48.690;9.016;2023-04-03T05:50:19;96816.66;;;2.00;69.41
706;BME280;21234;48.690;9.016;2023-04-03T05:52:48;96814.63;;;1.87;66.86
706;BME280;21234;48.690;9.016;2023-04-03T05:55:15;96821.53;;;1.96;67.73
706;BME280;21234;48.690;9.016;2023-04-03T05:57:42;96824.81;;;2.07;68.89
706;BME280;21234;48.690;9.016;2023-04-03T06:00:13;96825.56;;;2.15;68.46
706;BME280;21234;48.690;9.016;2023-04-03T06:02:41;96826.56;;;2.14;68.29
706;BME280;21234;48.690;9.016;2023-04-03T06:05:08;96829.34;;;2.35;68.64
706;BME280;21234;48.690;9.016;2023-04-03T06:07:38;96826.75;;;2.57;67.07
706;BME280;21234;48.690;9.016;2023-04-03T06:10:06;96832.72;;;2.88;67.41
706;BME280;21234;48.690;9.016;2023-04-03T06:12:34;96833.22;;;3.13;66.92
706;BME280;21234;48.690;9.016;2023-04-03T06:15:00;96834.63;;;3.09;67.18
706;BME280;21234;48.690;9.016;2023-04-03T06:17:27;96833.38;;;2.76;68.79
706;BME280;21234;48.690;9.016;2023-04-03T06:19:54;96833.44;;;2.46;69.15
706;BME280;21234;48.690;9.016;2023-04-03T06:22:23;96844.72;;;2.27;70.66
706;BME280;21234;48.690;9.016;2023-04-03T06:24:52;96837.75;;;2.32;71.71
706;BME280;21234;48.690;9.016;2023-04-03T06:27:19;96831.84;;;2.22;70.53
706;BME280;21234;48.690;9.016;2023-04-03T06:29:46;96842.59;;;2.22;70.85
706;BME280;21234;48.690;9.016;2023-04-03T06:32:14;96839.53;;;2.11;69.71
706;BME280;21234;48.690;9.016;2023-04-03T06:34:40;96839.91;;;2.22;71.57
706;BME280;21234;48.690;9.016;2023-04-03T06:37:10;96843.06;;;2.26;70.97
706;BME280;21234;48.690;9.016;2023-04-03T06:39:37;96847.28;;;2.35;71.12
706;BME280;21234;48.690;9.016;2023-04-03T06:42:05;96841.38;;;2.40;70.01
706;BME280;21234;48.690;9.016;2023-04-03T06:44:32;96849.06;;;2.43;69.99
706;BME280;21234;48.690;9.016;2023-04-03T06:47:00;96853.97;;;2.54;69.75
706;BME280;21234;48.690;9.016;2023-04-03T06:49:26;96852.50;;;2.51;68.78
706;BME280;21234;48.690;9.016;2023-04-03T06:51:54;96858.66;;;2.66;70.10
706;BME280;21234;48.690;9.016;2023-04-03T06:54:20;96848.50;;;2.47;68.35
706;BME280;21234;48.690;9.016;2023-04-03T06:56:47;96842.88;;;2.42;69.58
706;BME280;21234;48.690;9.016;2023-04-03T06:59:16;96847.59;;;2.55;68.83
706;BME280;21234;48.690;9.016;2023-04-03T07:01:43;96853.03;;;2.47;70.15
706;BME280;21234;48.690;9.016;2023-04-03T07:04:09;96858.50;;;2.53;70.37
706;BME280;21234;48.690;9.016;2023-04-03T07:06:36;96854.44;;;2.57;70.89
706;BME280;21234;48.690;9.016;2023-04-03T07:09:03;96851.09;;;2.55;69.50
706;BME280;21234;48.690;9.016;2023-04-03T07:11:30;96855.16;;;2.66;70.85
706;BME280;21234;48.690;9.016;2023-04-03T07:13:56;96852.94;;;2.69;71.21
706;BME280;21234;48.690;9.016;2023-04-03T07:16:24;96860.47;;;2.59;69.84
706;BME280;21234;48.690;9.016;2023-04-03T07:18:51;96865.91;;;2.51;69.54
706;BME280;21234;48.690;9.016;2023-04-03T07:21:18;96870.91;;;2.54;70.43
706;BME280;21234;48.690;9.016;2023-04-03T07:23:45;96862.19;;;2.67;72.40
706;BME280;21234;48.690;9.016;2023-04-03T07:26:11;96867.75;;;2.80;71.95
706;BME280;21234;48.690;9.016;2023-04-03T07:28:38;96868.94;;;2.92;71.91
706;BME280;21234;48.690;9.016;2023-04-03T07:31:07;96874.00;;;3.02;71.21
706;BME280;21234;48.690;9.016;2023-04-03T07:33:37;96871.13;;;3.03;69.67
706;BME280;21234;48.690;9.016;2023-04-03T07:36:05;96869.19;;;2.97;71.26
706;BME280;21234;48.690;9.016;2023-04-03T07:38:33;96873.34;;;3.00;71.14
706;BME280;21234;48.690;9.016;2023-04-03T07:41:01;96878.44;;;3.10;70.59
706;BME280;21234;48.690;9.016;2023-04-03T07:43:27;96876.94;;;3.07;70.46
706;BME280;21234;48.690;9.016;2023-04-03T07:45:54;96876.00;;;3.15;70.87
706;BME280;21234;48.690;9.016;2023-04-03T07:48:22;96884.06;;;3.15;70.75
706;BME280;21234;48.690;9.016;2023-04-03T07:50:51;96882.50;;;3.06;69.47
706;BME280;21234;48.690;9.016;2023-04-03T07:53:18;96882.69;;;3.19;71.34
706;BME280;21234;48.690;9.016;2023-04-03T07:55:46;96883.44;;;3.34;69.99
706;BME280;21234;48.690;9.016;2023-04-03T07:58:14;96890.28;;;3.51;70.38
706;BME280;21234;48.690;9.016;2023-04-03T08:00:41;96890.84;;;3.68;69.51
706;BME280;21234;48.690;9.016;2023-04-03T08:03:10;96881.25;;;3.80;70.26
706;BME280;21234;48.690;9.016;2023-04-03T08:05:38;96886.69;;;3.87;69.41
706;BME280;21234;48.690;9.016;2023-04-03T08:08:07;96885.47;;;3.89;69.84
706;BME280;21234;48.690;9.016;2023-04-03T08:10:34;96887.00;;;3.77;66.80
706;BME280;21234;48.690;9.016;2023-04-03T08:13:02;96890.88;;;3.96;67.74
706;BME280;21234;48.690;9.016;2023-04-03T08:15:30;96885.88;;;5.24;66.64
706;BME280;21234;48.690;9.016;2023-04-03T08:17:56;96881.19;;;4.92;65.93
706;BME280;21234;48.690;9.016;2023-04-03T08:20:23;96888.97;;;4.73;66.37
706;BME280;21234;48.690;9.016;2023-04-03T08:22:51;96890.38;;;4.35;67.29
706;BME280;21234;48.690;9.016;2023-04-03T08:25:19;96886.06;;;4.13;68.80
706;BME280;21234;48.690;9.016;2023-04-03T08:27:45;96893.13;;;4.14;67.57
706;BME280;21234;48.690;9.016;2023-04-03T08:30:13;96898.06;;;4.10;68.66
706;BME280;21234;48.690;9.016;2023-04-03T08:32:40;96881.84;;;4.03;68.75
706;BME280;21234;48.690;9.016;2023-04-03T08:35:09;96888.25;;;4.02;69.44
706;BME280;21234;48.690;9.016;2023-04-03T08:37:36;96890.50;;;4.20;69.41
706;BME280;21234;48.690;9.016;2023-04-03T08:40:03;96895.69;;;4.28;68.94
706;BME280;21234;48.690;9.016;2023-04-03T08:42:40;96891.91;;;4.79;67.52
706;BME280;21234;48.690;9.016;2023-04-03T08:45:12;96891.91;;;4.79;66.07
706;BME280;21234;48.690;9.016;2023-04-03T08:47:44;96893.56;;;4.45;66.96
706;BME280;21234;48.690;9.016;2023-04-03T08:50:15;96897.97;;;4.53;67.36
706;BME280;21234;48.690;9.016;2023-04-03T08:52:45;96900.53;;;4.67;68.46
706;BME280;21234;48.690;9.016;2023-04-03T08:55:22;96897.50;;;4.77;66.88
706;BME280;21234;48.690;9.016;2023-04-03T08:57:59;96896.50;;;4.50;67.51
706;BME280;21234;48.690;9.016;2023-04-03T09:00:29;96895.22;;;4.46;67.37
706;BME280;21234;48.690;9.016;2023-04-03T09:02:57;96899.00;;;4.52;67.66
706;BME280;21234;48.690;9.016;2023-04-03T09:05:33;96899.84;;;4.59;66.89
706;BME280;21234;48.690;9.016;2023-04-03T09:08:07;96899.72;;;4.39;65.34
706;BME280;21234;48.690;9.016;2023-04-03T09:10:40;96907.81;;;4.39;66.55
706;BME280;21234;48.690;9.016;2023-04-03T09:13:15;96902.59;;;4.65;66.87
706;BME280;21234;48.690;9.016;2023-04-03T09:15:47;96906.00;;;4.46;67.09
706;BME280;21234;48.690;9.016;2023-04-03T09:18:17;96906.28;;;4.30;68.43
706;BME280;21234;48.690;9.016;2023-04-03T09:20:51;96901.25;;;4.20;68.37
706;BME280;21234;48.690;9.016;2023-04-03T09:23:24;96903.34;;;4.25;68.59
706;BME280;21234;48.690;9.016;2023-04-03T09:25:56;96916.56;;;3.98;66.04
706;BME280;21234;48.690;9.016;2023-04-03T09:28:25;96907.72;;;4.04;67.36
706;BME280;21234;48.690;9.016;2023-04-03T09:30:53;96909.16;;;4.28;68.65
706;BME280;21234;48.690;9.016;2023-04-03T09:33:20;96906.31;;;4.09;67.25
706;BME280;21234;48.690;9.016;2023-04-03T09:35:48;96900.50;;;4.05;67.86
706;BME280;21234;48.690;9.016;2023-04-03T09:38:20;96898.63;;;4.05;67.67
706;BME280;21234;48.690;9.016;2023-04-03T09:40:49;96901.38;;;4.12;69.19
706;BME280;21234;48.690;9.016;2023-04-03T09:43:26;96906.69;;;4.05;69.07
706;BME280;21234;48.690;9.016;2023-04-03T09:45:55;96898.47;;;3.86;67.78
706;BME280;21234;48.690;9.016;2023-04-03T09:48:24;96910.94;;;3.72;65.59
706;BME280;21234;48.690;9.016;2023-04-03T09:50:57;96909.91;;;3.73;65.35
706;BME280;21234;48.690;9.016;2023-04-03T09:53:28;96903.97;;;3.56;64.12
706;BME280;21234;48.690;9.016;2023-04-03T09:55:56;96914.38;;;3.66;66.39
706;BME280;21234;48.690;9.016;2023-04-03T09:58:27;96914.50;;;3.58;65.02
706;BME280;21234;48.690;9.016;2023-04-03T10:00:55;96902.63;;;3.46;65.17
706;BME280;21234;48.690;9.016;2023-04-03T10:03:26;96903.38;;;3.61;64.80
706;BME280;21234;48.690;9.016;2023-04-03T10:05:53;96894.31;;;3.83;64.30
706;BME280;21234;48.690;9.016;2023-04-03T10:08:24;96893.97;;;3.93;63.66
706;BME280;21234;48.690;9.016;2023-04-03T10:11:21;96894.16;;;3.91;61.92
706;BME280;21234;48.690;9.016;2023-04-03T10:13:54;96894.28;;;4.04;62.47
706;BME280;21234;48.690;9.016;2023-04-03T10:16:26;96891.34;;;4.27;62.92
706;BME280;21234;48.690;9.016;2023-04-03T10:19:03;96896.06;;;4.47;62.07
706;BME280;21234;48.690;9.016;2023-04-03T10:21:38;96891.13;;;4.50;63.56
706;BME280;21234;48.690;9.016;2023-04-03T10:24:11;96886.44;;;4.65;63.54
706;BME280;21234;48.690;9.016;2023-04-03T10:26:45;96892.44;;;4.67;61.42
706;BME280;21234;48.690;9.016;2023-04-03T10:32:39;96893.63;;;4.93;61.41
706;BME280;21234;48.690;9.016;2023-04-03T10:35:15;96896.97;;;4.60;60.06
706;BME280;21234;48.690;9.016;2023-04-03T10:37:52;96890.97;;;4.65;63.14
706;BME280;21234;48.690;9.016;2023-04-03T10:40:26;96893.28;;;4.68;62.32
706;BME280;21234;48.690;9.016;2023-04-03T10:43:04;96891.31;;;4.55;63.56
706;BME280;21234;48.690;9.016;2023-04-03T10:45:46;96894.53;;;4.37;64.30
706;BME280;21234;48.690;9.016;2023-04-03T10:48:22;96895.16;;;4.12;64.41
706;BME280;21234;48.690;9.016;2023-04-03T10:50:58;96892.94;;;4.15;64.74
706;BME280;21234;48.690;9.016;2023-04-03T10:53:33;96894.22;;;4.26;64.84
706;BME280;21234;48.690;9.016;2023-04-03T10:56:05;96892.53;;;4.46;64.39
706;BME280;21234;48.690;9.016;2023-04-03T10:58:37;96889.97;;;4.66;64.51
706;BME280;21234;48.690;9.016;2023-04-03T11:01:09;96893.44;;;4.60;62.81
706;BME280;21234;48.690;9.016;2023-04-03T11:03:40;96895.50;;;4.58;63.43
706;BME280;21234;48.690;9.016;2023-04-03T11:06:10;96890.22;;;4.43;62.67
706;BME280;21234;48.690;9.016;2023-04-03T11:08:41;96896.19;;;4.38;63.12
706;BME280;21234;48.690;9.016;2023-04-03T11:11:12;96901.06;;;4.22;64.28
706;BME280;21234;48.690;9.016;2023-04-03T11:13:43;96896.38;;;4.09;63.82
706;BME280;21234;48.690;9.016;2023-04-03T11:16:15;96894.91;;;4.07;63.50
706;BME280;21234;48.690;9.016;2023-04-03T11:18:47;96890.06;;;4.23;63.65
706;BME280;21234;48.690;9.016;2023-04-03T11:21:20;96897.94;;;4.25;62.42
706;BME280;21234;48.690;9.016;2023-04-03T11:23:48;96896.41;;;4.37;63.46
706;BME280;21234;48.690;9.016;2023-04-03T11:26:19;96895.50;;;4.30;61.10
706;BME280;21234;48.690;9.016;2023-04-03T11:28:52;96893.25;;;4.33;62.15
706;BME280;21234;48.690;9.016;2023-04-03T11:31:37;96892.94;;;4.43;62.68
706;BME280;21234;48.690;9.016;2023-04-03T11:34:19;96890.13;;;4.30;62.56
706;BME280;21234;48.690;9.016;2023-04-03T11:36:50;96888.63;;;4.21;63.86
706;BME280;21234;48.690;9.016;2023-04-03T11:39:23;96892.72;;;4.17;62.76
706;BME280;21234;48.690;9.016;2023-04-03T11:41:51;96886.00;;;4.06;63.18
706;BME280;21234;48.690;9.016;2023-04-03T11:44:36;96883.56;;;4.11;63.08
706;BME280;21234;48.690;9.016;2023-04-03T11:47:06;96886.91;;;4.13;63.76
706;BME280;21234;48.690;9.016;2023-04-03T11:49:56;96890.72;;;4.25;64.03
706;BME280;21234;48.690;9.016;2023-04-03T11:52:59;96879.03;;;4.39;61.95
706;BME280;21234;48.690;9.016;2023-04-03T11:55:52;96875.16;;;4.49;60.60
706;BME280;21234;48.690;9.016;2023-04-03T11:58:21;96875.00;;;4.29;58.60
706;BME280;21234;48.690;9.016;2023-04-03T12:00:53;96864.94;;;4.37;59.70
706;BME280;21234;48.690;9.016;2023-04-03T12:09:56;96867.03;;;4.14;59.36
706;BME280;21234;48.690;9.016;2023-04-03T12:12:28;96860.28;;;4.25;59.47
706;BME280;21234;48.690;9.016;2023-04-03T12:15:16;96863.66;;;4.33;59.23
706;BME280;21234;48.690;9.016;2023-04-03T12:17:44;96870.91;;;4.33;57.84
706;BME280;21234;48.690;9.016;2023-04-03T12:23:24;96869.38;;;4.52;59.01
706;BME280;21234;48.690;9.016;2023-04-03T12:26:00;96859.06;;;4.62;57.79
706;BME280;21234;48.690;9.016;2023-04-03T12:28:28;96854.16;;;4.72;57.95
706;BME280;21234;48.690;9.016;2023-04-03T12:30:56;96850.22;;;4.75;58.36
706;BME280;21234;48.690;9.016;2023-04-03T12:33:31;96848.38;;;4.75;58.13
706;BME280;21234;48.690;9.016;2023-04-03T12:36:06;96855.28;;;4.56;56.83
706;BME280;21234;48.690;9.016;2023-04-03T12:39:01;96844.50;;;4.50;57.98
706;BME280;21234;48.690;9.016;2023-04-03T12:41:38;96850.69;;;4.44;57.43
706;BME280;21234;48.690;9.016;2023-04-03T12:44:21;96850.63;;;4.37;57.26
706;BME280;21234;48.690;9.016;2023-04-03T12:46:53;96848.13;;;4.35;57.66
706;BME280;21234;48.690;9.016;2023-04-03T12:49:33;96850.97;;;4.27;56.60
706;BME280;21234;48.690;9.016;2023-04-03T12:52:04;96855.72;;;4.25;56.51
706;BME280;21234;48.690;9.016;2023-04-03T12:54:35;96852.19;;;4.25;57.69
706;BME280;21234;48.690;9.016;2023-04-03T12:57:17;96853.13;;;4.38;57.92
706;BME280;21234;48.690;9.016;2023-04-03T12:59:44;96841.13;;;4.41;56.52
706;BME280;21234;48.690;9.016;2023-04-03T13:02:22;96850.53;;;4.58;58.01
706;BME280;21234;48.690;9.016;2023-04-03T13:04:50;96848.59;;;4.80;57.35
706;BME280;21234;48.690;9.016;2023-04-03T13:07:22;96839.34;;;4.96;55.28
706;BME280;21234;48.690;9.016;2023-04-03T13:09:59;96835.28;;;5.13;53.37
706;BME280;21234;48.690;9.016;2023-04-03T13:12:29;96829.53;;;5.56;55.26
706;BME280;21234;48.690;9.016;2023-04-03T13:14:58;96839.75;;;5.67;54.46
706;BME280;21234;48.690;9.016;2023-04-03T13:17:26;96841.00;;;5.71;54.50
706;BME280;21234;48.690;9.016;2023-04-03T13:19:54;96839.09;;;5.45;54.36
706;BME280;21234;48.690;9.016;2023-04-03T13:22:28;96839.03;;;5.32;53.62
706;BME280;21234;48.690;9.016;2023-04-03T13:24:58;96832.38;;;5.15;53.79
706;BME280;21234;48.690;9.016;2023-04-03T13:27:27;96833.19;;;5.22;53.47
706;BME280;21234;48.690;9.016;2023-04-03T13:29:58;96829.91;;;5.20;53.67
706;BME280;21234;48.690;9.016;2023-04-03T13:32:28;96834.00;;;5.09;51.68
706;BME280;21234;48.690;9.016;2023-04-03T13:34:56;96840.91;;;5.31;53.45
706;BME280;21234;48.690;9.016;2023-04-03T13:37:25;96838.47;;;5.50;52.27
706;BME280;21234;48.690;9.016;2023-04-03T13:40:00;96830.59;;;5.55;50.64
706;BME280;21234;48.690;9.016;2023-04-03T13:42:31;96833.63;;;5.25;49.09
706;BME280;21234;48.690;9.016;2023-04-03T13:45:18;96829.94;;;5.39;50.46
706;BME280;21234;48.690;9.016;2023-04-03T13:47:46;96820.00;;;5.47;50.44
706;BME280;21234;48.690;9.016;2023-04-03T13:50:17;96828.31;;;5.58;49.48
706;BME280;21234;48.690;9.016;2023-04-03T13:52:46;96825.41;;;5.60;49.83
706;BME280;21234;48.690;9.016;2023-04-03T13:55:20;96824.19;;;5.82;51.01
706;BME280;21234;48.690;9.016;2023-04-03T13:57:57;96817.56;;;5.78;52.67
706;BME280;21234;48.690;9.016;2023-04-03T14:00:36;96822.31;;;5.63;52.58
706;BME280;21234;48.690;9.016;2023-04-03T14:03:12;96825.81;;;5.50;51.68